sensor_id;sensor_type;location;lat;lon;timestamp;P1;durP1;ratioP1;P2;durP2;ratioP2
14754;SDS011;7469;50.906;6.952;2022-09-09T00:00:19;2.90;;;1.10;;
14754;SDS011;7469;50.906;6.952;2022-09-09T00:02:51;3.13;;;1.30;;
14754;SDS011;7469;50.906;6.952;2022-09-09T00:05:29;1.23;;;1.00;;
14754;SDS011;7469;50.906;6.952;2022-09-09T00:08:03;2.67;;;1.23;;
14754;SDS011;7469;50.906;6.952;2022-09-09T00:10:32;3.60;;;1.20;;
14754;SDS011;7469;50.906;6.952;2022-09-09T00:13:06;3.17;;;1.37;;
14754;SDS011;7469;50.906;6.952;2022-09-09T00:15:45;3.53;;;1.20;;
14754;SDS011;7469;50.906;6.952;2022-09-09T00:18:22;2.63;;;1.13;;
14754;SDS011;7469;50.906;6.952;2022-09-09T00:20:57;4.53;;;1.23;;
14754;SDS011;7469;50.906;6.952;2022-09-09T00:23:31;3.93;;;1.27;;
14754;SDS011;7469;50.906;6.952;2022-09-09T00:26:02;6.07;;;1.30;;
14754;SDS011;7469;50.906;6.952;2022-09-09T00:28:36;4.20;;;1.30;;
14754;SDS011;7469;50.906;6.952;2022-09-09T00:31:12;2.63;;;0.97;;
14754;SDS011;7469;50.906;6.952;2022-09-09T00:33:44;4.87;;;1.20;;
14754;SDS011;7469;50.906;6.952;2022-09-09T00:36:16;3.83;;;1.23;;
14754;SDS011;7469;50.906;6.952;2022-09-09T00:38:49;2.20;;;1.00;;
14754;SDS011;7469;50.906;6.952;2022-09-09T00:41:24;2.90;;;0.97;;
14754;SDS011;7469;50.906;6.952;2022-09-09T00:44:00;2.27;;;0.97;;
14754;SDS011;7469;50.906;6.952;2022-09-09T00:46:34;4.77;;;1.33;;
14754;SDS011;7469;50.906;6.952;2022-09-09T00:49:20;1.33;;;0.80;;
14754;SDS011;7469;50.906;6.952;2022-09-09T00:52:02;2.30;;;1.10;;
14754;SDS011;7469;50.906;6.952;2022-09-09T00:54:40;4.63;;;1.40;;
14754;SDS011;7469;50.906;6.952;2022-09-09T00:57:21;5.07;;;1.50;;
14754;SDS011;7469;50.906;6.952;2022-09-09T01:00:16;4.33;;;1.03;;
14754;SDS011;7469;50.906;6.952;2022-09-09T01:02:49;3.43;;;1.50;;
14754;SDS011;7469;50.906;6.952;2022-09-09T01:05:27;3.53;;;1.23;;
14754;SDS011;7469;50.906;6.952;2022-09-09T01:08:03;2.23;;;0.87;;
14754;SDS011;7469;50.906;6.952;2022-09-09T01:10:40;4.37;;;1.10;;
14754;SDS011;7469;50.906;6.952;2022-09-09T01:13:17;3.87;;;1.20;;
14754;SDS011;7469;50.906;6.952;2022-09-09T01:15:49;3.63;;;1.30;;
14754;SDS011;7469;50.906;6.952;2022-09-09T01:18:26;2.33;;;1.20;;
14754;SDS011;7469;50.906;6.952;2022-09-09T01:21:02;2.33;;;1.13;;
14754;SDS011;7469;50.906;6.952;2022-09-09T01:23:51;4.17;;;1.60;;
14754;SDS011;7469;50.906;6.952;2022-09-09T01:26:33;2.47;;;1.20;;
14754;SDS011;7469;50.906;6.952;2022-09-09T01:29:02;3.50;;;1.30;;
14754;SDS011;7469;50.906;6.952;2022-09-09T01:31:35;2.60;;;1.00;;
14754;SDS011;7469;50.906;6.952;2022-09-09T01:34:08;3.27;;;1.17;;
14754;SDS011;7469;50.906;6.952;2022-09-09T01:36:39;5.63;;;1.40;;
14754;SDS011;7469;50.906;6.952;2022-09-09T01:39:10;4.37;;;1.07;;
14754;SDS011;7469;50.906;6.952;2022-09-09T01:41:40;2.90;;;1.10;;
14754;SDS011;7469;50.906;6.952;2022-09-09T01:44:08;3.73;;;1.00;;
14754;SDS011;7469;50.906;6.952;2022-09-09T01:46:36;3.33;;;1.40;;
14754;SDS011;7469;50.906;6.952;2022-09-09T01:49:05;3.53;;;1.10;;
14754;SDS011;7469;50.906;6.952;2022-09-09T01:51:34;2.67;;;0.87;;
14754;SDS011;7469;50.906;6.952;2022-09-09T01:54:03;3.03;;;1.10;;
14754;SDS011;7469;50.906;6.952;2022-09-09T01:56:35;3.23;;;1.10;;
14754;SDS011;7469;50.906;6.952;2022-09-09T01:59:15;4.30;;;1.13;;
14754;SDS011;7469;50.906;6.952;2022-09-09T02:02:03;4.17;;;1.47;;
14754;SDS011;7469;50.906;6.952;2022-09-09T02:04:37;6.20;;;1.17;;
14754;SDS011;7469;50.906;6.952;2022-09-09T02:07:10;4.67;;;1.20;;
14754;SDS011;7469;50.906;6.952;2022-09-09T02:09:51;4.03;;;1.20;;
14754;SDS011;7469;50.906;6.952;2022-09-09T02:12:27;3.40;;;1.30;;
14754;SDS011;7469;50.906;6.952;2022-09-09T02:14:58;3.20;;;1.37;;
14754;SDS011;7469;50.906;6.952;2022-09-09T02:17:30;4.90;;;1.20;;
14754;SDS011;7469;50.906;6.952;2022-09-09T02:20:03;5.33;;;1.47;;
14754;SDS011;7469;50.906;6.952;2022-09-09T02:22:33;3.13;;;1.20;;
14754;SDS011;7469;50.906;6.952;2022-09-09T02:25:06;2.87;;;1.20;;
14754;SDS011;7469;50.906;6.952;2022-09-09T02:27:39;5.50;;;1.20;;
14754;SDS011;7469;50.906;6.952;2022-09-09T02:30:10;7.57;;;1.47;;
14754;SDS011;7469;50.906;6.952;2022-09-09T02:32:39;2.90;;;1.30;;
14754;SDS011;7469;50.906;6.952;2022-09-09T02:35:11;3.97;;;1.20;;
14754;SDS011;7469;50.906;6.952;2022-09-09T02:37:41;5.20;;;1.27;;
14754;SDS011;7469;50.906;6.952;2022-09-09T02:40:12;2.93;;;1.33;;
14754;SDS011;7469;50.906;6.952;2022-09-09T02:42:44;4.53;;;1.50;;
14754;SDS011;7469;50.906;6.952;2022-09-09T02:45:14;7.90;;;1.60;;
14754;SDS011;7469;50.906;6.952;2022-09-09T02:47:46;5.50;;;1.30;;
14754;SDS011;7469;50.906;6.952;2022-09-09T02:50:19;2.93;;;1.10;;
14754;SDS011;7469;50.906;6.952;2022-09-09T02:52:56;4.27;;;1.43;;
14754;SDS011;7469;50.906;6.952;2022-09-09T02:55:35;4.80;;;1.27;;
14754;SDS011;7469;50.906;6.952;2022-09-09T02:58:08;7.17;;;1.90;;
14754;SDS011;7469;50.906;6.952;2022-09-09T03:00:39;3.77;;;1.50;;
14754;SDS011;7469;50.906;6.952;2022-09-09T03:03:07;7.70;;;1.53;;
14754;SDS011;7469;50.906;6.952;2022-09-09T03:05:36;5.13;;;1.60;;
14754;SDS011;7469;50.906;6.952;2022-09-09T03:08:05;4.70;;;1.67;;
14754;SDS011;7469;50.906;6.952;2022-09-09T03:10:33;4.10;;;1.50;;
14754;SDS011;7469;50.906;6.952;2022-09-09T03:13:01;4.33;;;1.80;;
14754;SDS011;7469;50.906;6.952;2022-09-09T03:15:31;4.27;;;1.60;;
14754;SDS011;7469;50.906;6.952;2022-09-09T03:18:00;4.67;;;1.30;;
14754;SDS011;7469;50.906;6.952;2022-09-09T03:20:28;3.97;;;1.50;;
14754;SDS011;7469;50.906;6.952;2022-09-09T03:22:58;7.83;;;1.90;;
14754;SDS011;7469;50.906;6.952;2022-09-09T03:25:26;5.30;;;1.63;;
14754;SDS011;7469;50.906;6.952;2022-09-09T03:27:55;6.70;;;1.70;;
14754;SDS011;7469;50.906;6.952;2022-09-09T03:30:23;3.77;;;1.70;;
14754;SDS011;7469;50.906;6.952;2022-09-09T03:32:54;4.57;;;1.40;;
14754;SDS011;7469;50.906;6.952;2022-09-09T03:35:22;6.80;;;1.83;;
14754;SDS011;7469;50.906;6.952;2022-09-09T03:37:51;6.87;;;1.97;;
14754;SDS011;7469;50.906;6.952;2022-09-09T03:40:19;7.77;;;1.47;;
14754;SDS011;7469;50.906;6.952;2022-09-09T03:42:47;5.53;;;1.70;;
14754;SDS011;7469;50.906;6.952;2022-09-09T03:45:15;6.10;;;1.77;;
14754;SDS011;7469;50.906;6.952;2022-09-09T03:47:43;6.23;;;1.60;;
14754;SDS011;7469;50.906;6.952;2022-09-09T03:50:12;5.67;;;1.40;;
14754;SDS011;7469;50.906;6.952;2022-09-09T03:52:40;4.83;;;1.57;;
14754;SDS011;7469;50.906;6.952;2022-09-09T03:55:10;4.83;;;1.60;;
14754;SDS011;7469;50.906;6.952;2022-09-09T03:57:37;5.47;;;1.83;;
14754;SDS011;7469;50.906;6.952;2022-09-09T04:00:06;3.43;;;1.30;;
14754;SDS011;7469;50.906;6.952;2022-09-09T04:02:35;7.27;;;1.47;;
14754;SDS011;7469;50.906;6.952;2022-09-09T04:05:03;6.77;;;1.60;;
14754;SDS011;7469;50.906;6.952;2022-09-09T04:07:34;9.00;;;1.73;;
14754;SDS011;7469;50.906;6.952;2022-09-09T04:10:02;4.50;;;1.43;;
14754;SDS011;7469;50.906;6.952;2022-09-09T04:12:30;3.37;;;1.40;;
14754;SDS011;7469;50.906;6.952;2022-09-09T04:14:58;5.50;;;1.63;;
14754;SDS011;7469;50.906;6.952;2022-09-09T04:17:26;6.10;;;1.60;;
14754;SDS011;7469;50.906;6.952;2022-09-09T04:19:54;6.63;;;1.60;;
14754;SDS011;7469;50.906;6.952;2022-09-09T04:22:23;5.50;;;1.50;;
14754;SDS011;7469;50.906;6.952;2022-09-09T04:24:52;4.43;;;1.43;;
14754;SDS011;7469;50.906;6.952;2022-09-09T04:27:20;8.17;;;1.77;;
14754;SDS011;7469;50.906;6.952;2022-09-09T04:29:48;3.27;;;1.27;;
14754;SDS011;7469;50.906;6.952;2022-09-09T04:32:15;4.83;;;1.53;;
14754;SDS011;7469;50.906;6.952;2022-09-09T04:34:43;5.57;;;1.50;;
14754;SDS011;7469;50.906;6.952;2022-09-09T04:37:14;5.37;;;1.40;;
14754;SDS011;7469;50.906;6.952;2022-09-09T04:39:42;6.53;;;1.90;;
14754;SDS011;7469;50.906;6.952;2022-09-09T04:42:12;6.07;;;1.60;;
14754;SDS011;7469;50.906;6.952;2022-09-09T04:44:40;6.10;;;1.30;;
14754;SDS011;7469;50.906;6.952;2022-09-09T04:47:08;5.83;;;1.67;;
14754;SDS011;7469;50.906;6.952;2022-09-09T04:49:36;5.90;;;1.40;;
14754;SDS011;7469;50.906;6.952;2022-09-09T04:52:04;6.17;;;1.80;;
14754;SDS011;7469;50.906;6.952;2022-09-09T04:54:32;4.63;;;1.60;;
14754;SDS011;7469;50.906;6.952;2022-09-09T04:57:00;6.13;;;1.53;;
14754;SDS011;7469;50.906;6.952;2022-09-09T04:59:29;4.77;;;1.40;;
14754;SDS011;7469;50.906;6.952;2022-09-09T05:01:57;6.47;;;2.00;;
14754;SDS011;7469;50.906;6.952;2022-09-09T05:04:27;6.43;;;2.00;;
14754;SDS011;7469;50.906;6.952;2022-09-09T05:06:55;5.93;;;1.73;;
14754;SDS011;7469;50.906;6.952;2022-09-09T05:09:24;4.83;;;1.73;;
14754;SDS011;7469;50.906;6.952;2022-09-09T05:11:51;10.77;;;1.80;;
14754;SDS011;7469;50.906;6.952;2022-09-09T05:14:19;4.40;;;1.50;;
14754;SDS011;7469;50.906;6.952;2022-09-09T05:16:50;5.13;;;1.70;;
14754;SDS011;7469;50.906;6.952;2022-09-09T05:19:18;5.10;;;1.77;;
14754;SDS011;7469;50.906;6.952;2022-09-09T05:21:46;5.67;;;1.50;;
14754;SDS011;7469;50.906;6.952;2022-09-09T05:24:14;6.20;;;2.17;;
14754;SDS011;7469;50.906;6.952;2022-09-09T05:26:41;3.80;;;1.60;;
14754;SDS011;7469;50.906;6.952;2022-09-09T05:29:10;6.20;;;1.90;;
14754;SDS011;7469;50.906;6.952;2022-09-09T05:31:38;5.07;;;1.50;;
14754;SDS011;7469;50.906;6.952;2022-09-09T05:34:09;6.17;;;1.53;;
14754;SDS011;7469;50.906;6.952;2022-09-09T05:36:37;5.43;;;1.70;;
14754;SDS011;7469;50.906;6.952;2022-09-09T05:39:05;6.70;;;1.80;;
14754;SDS011;7469;50.906;6.952;2022-09-09T05:41:33;5.33;;;1.70;;
14754;SDS011;7469;50.906;6.952;2022-09-09T05:44:02;6.43;;;1.70;;
14754;SDS011;7469;50.906;6.952;2022-09-09T05:46:29;6.97;;;1.67;;
14754;SDS011;7469;50.906;6.952;2022-09-09T05:48:58;4.90;;;1.80;;
14754;SDS011;7469;50.906;6.952;2022-09-09T05:51:28;3.63;;;1.37;;
14754;SDS011;7469;50.906;6.952;2022-09-09T05:53:56;4.77;;;1.40;;
14754;SDS011;7469;50.906;6.952;2022-09-09T05:56:26;6.03;;;1.60;;
14754;SDS011;7469;50.906;6.952;2022-09-09T05:58:55;3.50;;;1.50;;
14754;SDS011;7469;50.906;6.952;2022-09-09T06:01:24;6.70;;;1.73;;
14754;SDS011;7469;50.906;6.952;2022-09-09T06:03:53;3.40;;;1.27;;
14754;SDS011;7469;50.906;6.952;2022-09-09T06:06:22;6.00;;;1.70;;
14754;SDS011;7469;50.906;6.952;2022-09-09T06:08:54;5.27;;;1.70;;
14754;SDS011;7469;50.906;6.952;2022-09-09T06:11:24;5.77;;;2.03;;
14754;SDS011;7469;50.906;6.952;2022-09-09T06:13:53;6.67;;;1.70;;
14754;SDS011;7469;50.906;6.952;2022-09-09T06:16:22;5.20;;;1.40;;
14754;SDS011;7469;50.906;6.952;2022-09-09T06:18:51;6.37;;;1.73;;
14754;SDS011;7469;50.906;6.952;2022-09-09T06:21:21;4.53;;;1.83;;
14754;SDS011;7469;50.906;6.952;2022-09-09T06:23:50;7.40;;;1.60;;
14754;SDS011;7469;50.906;6.952;2022-09-09T06:26:27;4.60;;;1.83;;
14754;SDS011;7469;50.906;6.952;2022-09-09T06:28:56;3.03;;;1.60;;
14754;SDS011;7469;50.906;6.952;2022-09-09T06:31:26;5.63;;;1.57;;
14754;SDS011;7469;50.906;6.952;2022-09-09T06:33:57;4.97;;;1.47;;
14754;SDS011;7469;50.906;6.952;2022-09-09T06:36:26;8.23;;;1.70;;
14754;SDS011;7469;50.906;6.952;2022-09-09T06:38:55;6.93;;;1.80;;
14754;SDS011;7469;50.906;6.952;2022-09-09T06:41:24;8.63;;;1.67;;
14754;SDS011;7469;50.906;6.952;2022-09-09T06:43:54;5.07;;;2.00;;
14754;SDS011;7469;50.906;6.952;2022-09-09T06:46:23;6.07;;;1.90;;
14754;SDS011;7469;50.906;6.952;2022-09-09T06:48:54;10.63;;;3.07;;
14754;SDS011;7469;50.906;6.952;2022-09-09T06:51:25;7.57;;;1.97;;
14754;SDS011;7469;50.906;6.952;2022-09-09T06:53:55;11.50;;;2.00;;
14754;SDS011;7469;50.906;6.952;2022-09-09T06:56:25;9.47;;;2.00;;
14754;SDS011;7469;50.906;6.952;2022-09-09T06:58:56;5.77;;;1.63;;
14754;SDS011;7469;50.906;6.952;2022-09-09T07:01:27;8.73;;;2.07;;
14754;SDS011;7469;50.906;6.952;2022-09-09T07:03:58;7.47;;;2.00;;
14754;SDS011;7469;50.906;6.952;2022-09-09T07:06:27;7.13;;;1.50;;
14754;SDS011;7469;50.906;6.952;2022-09-09T07:08:56;10.30;;;1.67;;
14754;SDS011;7469;50.906;6.952;2022-09-09T07:11:26;8.80;;;1.87;;
14754;SDS011;7469;50.906;6.952;2022-09-09T07:13:58;5.57;;;1.90;;
14754;SDS011;7469;50.906;6.952;2022-09-09T07:16:27;5.27;;;1.83;;
14754;SDS011;7469;50.906;6.952;2022-09-09T07:18:57;6.97;;;1.67;;
14754;SDS011;7469;50.906;6.952;2022-09-09T07:21:27;8.13;;;2.37;;
14754;SDS011;7469;50.906;6.952;2022-09-09T07:23:56;9.30;;;2.00;;
14754;SDS011;7469;50.906;6.952;2022-09-09T07:26:25;7.87;;;1.73;;
14754;SDS011;7469;50.906;6.952;2022-09-09T07:28:56;10.20;;;1.77;;
14754;SDS011;7469;50.906;6.952;2022-09-09T07:31:25;6.87;;;1.63;;
14754;SDS011;7469;50.906;6.952;2022-09-09T07:33:54;8.27;;;2.33;;
14754;SDS011;7469;50.906;6.952;2022-09-09T07:36:23;6.33;;;1.40;;
14754;SDS011;7469;50.906;6.952;2022-09-09T07:38:59;4.93;;;1.60;;
14754;SDS011;7469;50.906;6.952;2022-09-09T07:41:28;6.20;;;1.87;;
14754;SDS011;7469;50.906;6.952;2022-09-09T07:44:04;7.20;;;1.90;;
14754;SDS011;7469;50.906;6.952;2022-09-09T07:46:34;5.27;;;1.57;;
14754;SDS011;7469;50.906;6.952;2022-09-09T07:49:03;6.17;;;1.70;;
14754;SDS011;7469;50.906;6.952;2022-09-09T07:51:31;5.87;;;1.50;;
14754;SDS011;7469;50.906;6.952;2022-09-09T07:54:01;6.40;;;1.53;;
14754;SDS011;7469;50.906;6.952;2022-09-09T07:56:31;8.33;;;2.17;;
14754;SDS011;7469;50.906;6.952;2022-09-09T07:58:59;3.80;;;1.70;;
14754;SDS011;7469;50.906;6.952;2022-09-09T08:01:29;6.80;;;1.70;;
14754;SDS011;7469;50.906;6.952;2022-09-09T08:03:59;5.37;;;1.70;;
14754;SDS011;7469;50.906;6.952;2022-09-09T08:06:29;7.97;;;2.07;;
14754;SDS011;7469;50.906;6.952;2022-09-09T08:08:59;7.30;;;1.67;;
14754;SDS011;7469;50.906;6.952;2022-09-09T08:11:28;7.63;;;2.30;;
14754;SDS011;7469;50.906;6.952;2022-09-09T08:14:03;5.13;;;1.70;;
14754;SDS011;7469;50.906;6.952;2022-09-09T08:16:34;4.50;;;1.50;;
14754;SDS011;7469;50.906;6.952;2022-09-09T08:19:03;4.97;;;1.57;;
14754;SDS011;7469;50.906;6.952;2022-09-09T08:21:31;8.27;;;1.80;;
14754;SDS011;7469;50.906;6.952;2022-09-09T08:24:03;7.03;;;2.00;;
14754;SDS011;7469;50.906;6.952;2022-09-09T08:26:33;9.23;;;1.97;;
14754;SDS011;7469;50.906;6.952;2022-09-09T08:29:02;10.47;;;1.90;;
14754;SDS011;7469;50.906;6.952;2022-09-09T08:31:34;6.47;;;1.80;;
14754;SDS011;7469;50.906;6.952;2022-09-09T08:34:04;5.73;;;1.63;;
14754;SDS011;7469;50.906;6.952;2022-09-09T08:36:34;10.07;;;2.10;;
14754;SDS011;7469;50.906;6.952;2022-09-09T08:39:03;5.53;;;1.50;;
14754;SDS011;7469;50.906;6.952;2022-09-09T08:44:30;8.63;;;1.70;;
14754;SDS011;7469;50.906;6.952;2022-09-09T08:47:18;4.90;;;1.50;;
14754;SDS011;7469;50.906;6.952;2022-09-09T08:50:02;5.77;;;1.50;;
14754;SDS011;7469;50.906;6.952;2022-09-09T08:52:39;3.53;;;1.50;;
14754;SDS011;7469;50.906;6.952;2022-09-09T08:55:19;5.73;;;1.70;;
14754;SDS011;7469;50.906;6.952;2022-09-09T08:57:52;4.77;;;1.70;;
14754;SDS011;7469;50.906;6.952;2022-09-09T09:00:23;4.90;;;1.33;;
14754;SDS011;7469;50.906;6.952;2022-09-09T09:03:02;4.70;;;1.30;;
14754;SDS011;7469;50.906;6.952;2022-09-09T09:05:41;2.70;;;1.27;;
14754;SDS011;7469;50.906;6.952;2022-09-09T09:08:17;4.37;;;1.40;;
14754;SDS011;7469;50.906;6.952;2022-09-09T09:10:53;5.90;;;1.50;;
14754;SDS011;7469;50.906;6.952;2022-09-09T09:13:25;3.57;;;1.33;;
14754;SDS011;7469;50.906;6.952;2022-09-09T09:16:00;5.37;;;1.23;;
14754;SDS011;7469;50.906;6.952;2022-09-09T09:18:35;5.23;;;1.30;;
14754;SDS011;7469;50.906;6.952;2022-09-09T09:21:04;4.93;;;1.60;;
14754;SDS011;7469;50.906;6.952;2022-09-09T09:23:40;3.80;;;1.30;;
14754;SDS011;7469;50.906;6.952;2022-09-09T09:26:12;6.00;;;1.60;;
14754;SDS011;7469;50.906;6.952;2022-09-09T09:28:40;3.50;;;1.30;;
14754;SDS011;7469;50.906;6.952;2022-09-09T09:31:09;3.83;;;1.27;;
14754;SDS011;7469;50.906;6.952;2022-09-09T09:33:42;4.20;;;1.17;;
14754;SDS011;7469;50.906;6.952;2022-09-09T09:36:16;3.23;;;1.20;;
14754;SDS011;7469;50.906;6.952;2022-09-09T09:38:54;5.43;;;1.20;;
14754;SDS011;7469;50.906;6.952;2022-09-09T09:41:43;6.10;;;1.40;;
14754;SDS011;7469;50.906;6.952;2022-09-09T09:44:21;5.07;;;1.37;;
14754;SDS011;7469;50.906;6.952;2022-09-09T09:46:50;5.47;;;1.60;;
14754;SDS011;7469;50.906;6.952;2022-09-09T09:49:20;3.77;;;1.00;;
14754;SDS011;7469;50.906;6.952;2022-09-09T09:51:49;3.50;;;1.20;;
14754;SDS011;7469;50.906;6.952;2022-09-09T09:54:22;5.87;;;1.40;;
14754;SDS011;7469;50.906;6.952;2022-09-09T09:56:55;5.53;;;1.07;;
14754;SDS011;7469;50.906;6.952;2022-09-09T09:59:32;4.53;;;1.20;;
14754;SDS011;7469;50.906;6.952;2022-09-09T10:02:06;6.33;;;1.60;;
14754;SDS011;7469;50.906;6.952;2022-09-09T10:04:44;3.67;;;1.33;;
14754;SDS011;7469;50.906;6.952;2022-09-09T10:07:13;2.30;;;1.17;;
14754;SDS011;7469;50.906;6.952;2022-09-09T10:09:45;3.67;;;1.17;;
14754;SDS011;7469;50.906;6.952;2022-09-09T10:12:20;4.03;;;1.40;;
14754;SDS011;7469;50.906;6.952;2022-09-09T10:15:00;5.10;;;1.10;;
14754;SDS011;7469;50.906;6.952;2022-09-09T10:17:34;5.13;;;1.10;;
14754;SDS011;7469;50.906;6.952;2022-09-09T10:20:15;7.77;;;1.50;;
14754;SDS011;7469;50.906;6.952;2022-09-09T10:22:51;4.37;;;0.90;;
14754;SDS011;7469;50.906;6.952;2022-09-09T10:25:27;5.27;;;1.40;;
14754;SDS011;7469;50.906;6.952;2022-09-09T10:31:06;3.63;;;1.27;;
14754;SDS011;7469;50.906;6.952;2022-09-09T10:33:45;3.77;;;1.30;;
14754;SDS011;7469;50.906;6.952;2022-09-09T10:36:20;3.53;;;1.53;;
14754;SDS011;7469;50.906;6.952;2022-09-09T10:38:52;4.77;;;1.17;;
14754;SDS011;7469;50.906;6.952;2022-09-09T10:41:31;3.70;;;1.53;;
14754;SDS011;7469;50.906;6.952;2022-09-09T10:44:13;4.10;;;1.10;;
14754;SDS011;7469;50.906;6.952;2022-09-09T10:46:52;4.17;;;1.27;;
14754;SDS011;7469;50.906;6.952;2022-09-09T10:49:51;2.57;;;1.23;;
14754;SDS011;7469;50.906;6.952;2022-09-09T10:52:40;2.80;;;1.20;;
14754;SDS011;7469;50.906;6.952;2022-09-09T10:55:18;4.40;;;1.10;;
14754;SDS011;7469;50.906;6.952;2022-09-09T10:57:56;3.77;;;1.27;;
14754;SDS011;7469;50.906;6.952;2022-09-09T11:00:27;4.37;;;1.33;;
14754;SDS011;7469;50.906;6.952;2022-09-09T11:03:05;9.17;;;1.50;;
14754;SDS011;7469;50.906;6.952;2022-09-09T11:05:39;3.23;;;1.10;;
14754;SDS011;7469;50.906;6.952;2022-09-09T11:08:14;3.53;;;1.30;;
14754;SDS011;7469;50.906;6.952;2022-09-09T11:10:45;3.57;;;1.37;;
14754;SDS011;7469;50.906;6.952;2022-09-09T11:13:22;4.13;;;1.33;;
14754;SDS011;7469;50.906;6.952;2022-09-09T11:15:56;4.40;;;1.20;;
14754;SDS011;7469;50.906;6.952;2022-09-09T11:18:28;3.83;;;1.10;;
14754;SDS011;7469;50.906;6.952;2022-09-09T11:20:59;3.07;;;1.10;;
14754;SDS011;7469;50.906;6.952;2022-09-09T11:23:33;5.30;;;1.10;;
14754;SDS011;7469;50.906;6.952;2022-09-09T11:26:07;3.43;;;1.00;;
14754;SDS011;7469;50.906;6.952;2022-09-09T11:28:45;8.93;;;1.67;;
14754;SDS011;7469;50.906;6.952;2022-09-09T11:31:34;3.90;;;1.43;;
14754;SDS011;7469;50.906;6.952;2022-09-09T11:34:19;4.13;;;1.10;;
14754;SDS011;7469;50.906;6.952;2022-09-09T11:37:14;3.27;;;1.07;;
14754;SDS011;7469;50.906;6.952;2022-09-09T11:40:00;6.70;;;1.43;;
14754;SDS011;7469;50.906;6.952;2022-09-09T11:42:37;3.63;;;0.90;;
14754;SDS011;7469;50.906;6.952;2022-09-09T11:45:09;2.27;;;1.00;;
14754;SDS011;7469;50.906;6.952;2022-09-09T11:47:39;2.70;;;0.90;;
14754;SDS011;7469;50.906;6.952;2022-09-09T11:50:07;3.20;;;1.07;;
14754;SDS011;7469;50.906;6.952;2022-09-09T11:52:39;1.80;;;0.83;;
14754;SDS011;7469;50.906;6.952;2022-09-09T11:55:11;4.00;;;0.90;;
14754;SDS011;7469;50.906;6.952;2022-09-09T11:57:56;5.20;;;1.20;;
14754;SDS011;7469;50.906;6.952;2022-09-09T12:00:32;6.10;;;1.20;;
14754;SDS011;7469;50.906;6.952;2022-09-09T12:03:03;3.87;;;1.37;;
14754;SDS011;7469;50.906;6.952;2022-09-09T12:05:36;4.03;;;1.23;;
14754;SDS011;7469;50.906;6.952;2022-09-09T12:08:07;3.63;;;1.20;;
14754;SDS011;7469;50.906;6.952;2022-09-09T12:10:40;3.30;;;1.43;;
14754;SDS011;7469;50.906;6.952;2022-09-09T12:13:09;2.47;;;1.00;;
14754;SDS011;7469;50.906;6.952;2022-09-09T12:15:46;5.33;;;1.27;;
14754;SDS011;7469;50.906;6.952;2022-09-09T12:18:18;4.27;;;1.40;;
14754;SDS011;7469;50.906;6.952;2022-09-09T12:20:52;2.63;;;1.20;;
14754;SDS011;7469;50.906;6.952;2022-09-09T12:23:30;2.80;;;1.10;;
14754;SDS011;7469;50.906;6.952;2022-09-09T12:26:20;2.37;;;1.37;;
14754;SDS011;7469;50.906;6.952;2022-09-09T12:29:11;3.20;;;1.00;;
14754;SDS011;7469;50.906;6.952;2022-09-09T12:31:48;6.50;;;1.40;;
14754;SDS011;7469;50.906;6.952;2022-09-09T12:34:28;2.47;;;0.80;;
14754;SDS011;7469;50.906;6.952;2022-09-09T12:37:04;2.37;;;1.00;;
14754;SDS011;7469;50.906;6.952;2022-09-09T12:39:40;3.13;;;1.07;;
14754;SDS011;7469;50.906;6.952;2022-09-09T12:42:17;3.20;;;1.00;;
14754;SDS011;7469;50.906;6.952;2022-09-09T12:44:52;4.17;;;1.47;;
14754;SDS011;7469;50.906;6.952;2022-09-09T12:47:23;3.73;;;1.20;;
14754;SDS011;7469;50.906;6.952;2022-09-09T12:49:56;3.40;;;1.10;;
14754;SDS011;7469;50.906;6.952;2022-09-09T12:52:27;2.83;;;1.37;;
14754;SDS011;7469;50.906;6.952;2022-09-09T12:54:58;2.73;;;1.10;;
14754;SDS011;7469;50.906;6.952;2022-09-09T12:57:31;3.87;;;1.23;;
14754;SDS011;7469;50.906;6.952;2022-09-09T13:00:07;5.30;;;1.13;;
14754;SDS011;7469;50.906;6.952;2022-09-09T13:02:45;3.20;;;1.20;;
14754;SDS011;7469;50.906;6.952;2022-09-09T13:05:17;4.80;;;1.20;;
14754;SDS011;7469;50.906;6.952;2022-09-09T13:07:48;4.37;;;1.13;;
14754;SDS011;7469;50.906;6.952;2022-09-09T13:10:20;3.23;;;1.00;;
14754;SDS011;7469;50.906;6.952;2022-09-09T13:13:03;3.77;;;1.10;;
14754;SDS011;7469;50.906;6.952;2022-09-09T13:15:33;4.47;;;1.40;;
14754;SDS011;7469;50.906;6.952;2022-09-09T13:18:02;3.77;;;1.10;;
14754;SDS011;7469;50.906;6.952;2022-09-09T13:20:34;2.00;;;0.97;;
14754;SDS011;7469;50.906;6.952;2022-09-09T13:23:03;2.33;;;0.90;;
14754;SDS011;7469;50.906;6.952;2022-09-09T13:25:31;1.97;;;0.70;;
14754;SDS011;7469;50.906;6.952;2022-09-09T13:28:20;2.50;;;0.73;;
14754;SDS011;7469;50.906;6.952;2022-09-09T13:30:57;1.63;;;0.70;;
14754;SDS011;7469;50.906;6.952;2022-09-09T13:33:30;1.80;;;0.80;;
14754;SDS011;7469;50.906;6.952;2022-09-09T13:36:01;2.07;;;0.70;;
14754;SDS011;7469;50.906;6.952;2022-09-09T13:38:31;3.27;;;0.80;;
14754;SDS011;7469;50.906;6.952;2022-09-09T13:41:01;3.47;;;0.70;;
14754;SDS011;7469;50.906;6.952;2022-09-09T13:43:34;4.30;;;1.00;;
14754;SDS011;7469;50.906;6.952;2022-09-09T13:46:05;2.80;;;1.00;;
14754;SDS011;7469;50.906;6.952;2022-09-09T13:48:55;3.63;;;0.73;;
14754;SDS011;7469;50.906;6.952;2022-09-09T13:51:28;3.87;;;1.10;;
14754;SDS011;7469;50.906;6.952;2022-09-09T13:54:00;4.60;;;1.00;;
14754;SDS011;7469;50.906;6.952;2022-09-09T13:56:28;1.83;;;0.70;;
14754;SDS011;7469;50.906;6.952;2022-09-09T13:58:57;2.37;;;0.90;;
14754;SDS011;7469;50.906;6.952;2022-09-09T14:01:25;2.70;;;1.00;;
14754;SDS011;7469;50.906;6.952;2022-09-09T14:03:55;2.67;;;1.00;;
14754;SDS011;7469;50.906;6.952;2022-09-09T14:06:23;2.17;;;0.90;;
14754;SDS011;7469;50.906;6.952;2022-09-09T14:08:51;3.47;;;0.97;;
14754;SDS011;7469;50.906;6.952;2022-09-09T14:11:20;3.00;;;1.10;;
14754;SDS011;7469;50.906;6.952;2022-09-09T14:13:48;1.30;;;0.70;;
14754;SDS011;7469;50.906;6.952;2022-09-09T14:16:18;2.33;;;0.70;;
14754;SDS011;7469;50.906;6.952;2022-09-09T14:18:46;3.37;;;0.73;;
14754;SDS011;7469;50.906;6.952;2022-09-09T14:21:15;1.73;;;0.90;;
14754;SDS011;7469;50.906;6.952;2022-09-09T14:23:42;1.80;;;0.77;;
14754;SDS011;7469;50.906;6.952;2022-09-09T14:26:10;2.30;;;0.80;;
14754;SDS011;7469;50.906;6.952;2022-09-09T14:28:39;1.90;;;0.70;;
14754;SDS011;7469;50.906;6.952;2022-09-09T14:31:22;2.53;;;0.80;;
14754;SDS011;7469;50.906;6.952;2022-09-09T14:33:50;2.57;;;0.60;;
14754;SDS011;7469;50.906;6.952;2022-09-09T14:36:18;1.47;;;0.60;;
14754;SDS011;7469;50.906;6.952;2022-09-09T14:38:47;3.00;;;0.50;;
14754;SDS011;7469;50.906;6.952;2022-09-09T14:41:15;5.10;;;1.40;;
14754;SDS011;7469;50.906;6.952;2022-09-09T14:43:45;3.90;;;1.27;;
14754;SDS011;7469;50.906;6.952;2022-09-09T14:46:14;2.63;;;1.17;;
14754;SDS011;7469;50.906;6.952;2022-09-09T14:48:44;2.30;;;0.97;;
14754;SDS011;7469;50.906;6.952;2022-09-09T14:51:15;5.63;;;1.27;;
14754;SDS011;7469;50.906;6.952;2022-09-09T14:53:45;5.40;;;1.70;;
14754;SDS011;7469;50.906;6.952;2022-09-09T14:56:14;5.13;;;1.20;;
14754;SDS011;7469;50.906;6.952;2022-09-09T14:58:44;3.93;;;1.20;;
14754;SDS011;7469;50.906;6.952;2022-09-09T15:01:13;2.67;;;1.13;;
14754;SDS011;7469;50.906;6.952;2022-09-09T15:03:43;3.50;;;1.13;;
14754;SDS011;7469;50.906;6.952;2022-09-09T15:06:18;2.10;;;0.90;;
14754;SDS011;7469;50.906;6.952;2022-09-09T15:08:47;3.73;;;1.13;;
14754;SDS011;7469;50.906;6.952;2022-09-09T15:11:15;5.73;;;1.40;;
14754;SDS011;7469;50.906;6.952;2022-09-09T15:13:43;4.00;;;1.20;;
14754;SDS011;7469;50.906;6.952;2022-09-09T15:16:12;6.23;;;1.50;;
14754;SDS011;7469;50.906;6.952;2022-09-09T15:18:41;4.23;;;1.47;;
14754;SDS011;7469;50.906;6.952;2022-09-09T15:21:12;7.00;;;1.83;;
14754;SDS011;7469;50.906;6.952;2022-09-09T15:23:43;5.03;;;1.43;;
14754;SDS011;7469;50.906;6.952;2022-09-09T15:26:11;2.33;;;0.97;;
14754;SDS011;7469;50.906;6.952;2022-09-09T15:28:40;4.83;;;1.47;;
14754;SDS011;7469;50.906;6.952;2022-09-09T15:31:12;3.20;;;1.20;;
14754;SDS011;7469;50.906;6.952;2022-09-09T15:33:46;3.00;;;1.10;;
14754;SDS011;7469;50.906;6.952;2022-09-09T15:36:16;3.27;;;1.33;;